Time;durP1;ratioP1;P1;durP2;ratioP2;P2;SDS_P1;SDS_P2;PMS_P1;PMS_P2;Temp;Humidity;BMP_temperature;BMP_pressure;BME280_temperature;BME280_humidity;BME280_pressure;Samples;Min_cycle;Max_cycle;Signal;HPM_P1;HPM_P2
2021/05/31 00:00:07;;;;;;;12.93;8.97;;;;;;;;;;758500;182;918455;-75
2021/05/31 00:02:33;;;;;;;11.40;8.70;;;;;;;;;;758973;182;1016707;-75
2021/05/31 00:04:59;;;;;;;11.90;8.40;;;;;;;;;;766037;182;930320;-74
2021/05/31 00:07:24;;;;;;;12.43;8.67;;;;;;;;;;761162;182;820505;-76
2021/05/31 00:09:55;;;;;;;12.30;8.97;;;;;;;;;;760497;182;917568;-75
2021/05/31 00:12:17;;;;;;;10.25;8.85;;;;;;;;;;764527;182;916165;-75
2021/05/31 00:14:43;;;;;;;11.87;8.90;;;;;;;;;;769853;179;915569;-75
2021/05/31 00:17:08;;;;;;;13.40;9.60;;;;;;;;;;760823;182;915466;-75
2021/05/31 00:19:34;;;;;;;15.37;8.93;;;;;;;;;;763370;182;916723;-75
2021/05/31 00:22:00;;;;;;;11.00;8.90;;;;;;;;;;765623;182;916142;-74
2021/05/31 00:24:26;;;;;;;10.37;9.27;;;;;;;;;;761306;182;982649;-75
2021/05/31 00:26:53;;;;;;;11.90;8.37;;;;;;;;;;761044;182;916093;-75
2021/05/31 00:29:20;;;;;;;14.87;9.35;;;;;;;;;;765779;182;915925;-75
2021/05/31 00:31:44;;;;;;;14.07;9.53;;;;;;;;;;760813;182;906378;-75
2021/05/31 00:34:10;;;;;;;11.20;9.23;;;;;;;;;;761782;182;912155;-75
2021/05/31 00:36:36;;;;;;;11.37;9.50;;;;;;;;;;764136;182;912737;-74
2021/05/31 00:39:02;;;;;;;14.13;10.20;;;;;;;;;;761786;182;914437;-76
2021/05/31 00:41:28;;;;;;;11.83;8.97;;;;;;;;;;761474;182;896093;-75
2021/05/31 00:43:53;;;;;;;11.73;9.00;;;;;;;;;;762023;182;919465;-75
2021/05/31 00:46:19;;;;;;;11.90;8.17;;;;;;;;;;764911;182;897669;-76
2021/05/31 00:48:45;;;;;;;11.40;8.30;;;;;;;;;;760132;182;917699;-75
2021/05/31 00:51:11;;;;;;;10.73;8.47;;;;;;;;;;763182;182;895613;-75
2021/05/31 00:53:37;;;;;;;10.88;7.93;;;;;;;;;;765745;182;815954;-75
2021/05/31 00:56:03;;;;;;;12.50;8.40;;;;;;;;;;761107;182;918916;-75
2021/05/31 00:58:29;;;;;;;18.62;9.45;;;;;;;;;;763674;182;916929;-75
2021/05/31 01:00:54;;;;;;;9.40;7.80;;;;;;;;;;765901;182;915272;-75
2021/05/31 01:03:20;;;;;;;9.82;7.85;;;;;;;;;;760807;182;817209;-75
2021/05/31 01:05:47;;;;;;;11.10;8.27;;;;;;;;;;762146;182;919009;-75
2021/05/31 01:08:12;;;;;;;9.68;7.00;;;;;;;;;;760162;182;917477;-75
2021/05/31 01:10:42;;;;;;;12.20;7.93;;;;;;;;;;776007;179;960727;-76
2021/05/31 01:13:13;;;;;;;11.12;8.93;;;;;;;;;;764114;182;918840;-75
2021/05/31 01:15:39;;;;;;;10.97;8.60;;;;;;;;;;758680;182;917600;-74
2021/05/31 01:18:09;;;;;;;9.02;7.15;;;;;;;;;;763611;182;826109;-75
2021/05/31 01:20:54;;;;;;;9.60;7.80;;;;;;;;;;760010;182;1019624;-75
2021/05/31 01:23:19;;;;;;;13.57;8.27;;;;;;;;;;761264;182;918562;-74
2021/05/31 01:25:50;;;;;;;10.73;8.80;;;;;;;;;;761899;182;854489;-75
2021/05/31 01:28:20;;;;;;;11.10;8.37;;;;;;;;;;757445;182;919071;-75
2021/05/31 01:30:45;;;;;;;9.80;7.57;;;;;;;;;;766136;182;1021787;-75
2021/05/31 01:33:13;;;;;;;9.60;7.30;;;;;;;;;;766810;179;918765;-74
2021/05/31 01:35:39;;;;;;;10.13;6.40;;;;;;;;;;758809;182;918019;-75
2021/05/31 01:38:04;;;;;;;11.70;5.80;;;;;;;;;;763193;182;900273;-74
2021/05/31 01:40:30;;;;;;;8.00;5.80;;;;;;;;;;768394;182;816309;-75
2021/05/31 01:42:56;;;;;;;8.77;6.50;;;;;;;;;;760375;182;918730;-75
2021/05/31 01:45:22;;;;;;;8.20;6.37;;;;;;;;;;760856;182;918986;-75
2021/05/31 01:47:48;;;;;;;9.37;8.20;;;;;;;;;;764849;182;917416;-73
2021/05/31 01:50:14;;;;;;;9.17;6.43;;;;;;;;;;766502;182;918085;-74
2021/05/31 01:52:40;;;;;;;12.05;6.32;;;;;;;;;;759072;182;1020461;-74
2021/05/31 01:55:06;;;;;;;14.48;6.40;;;;;;;;;;765284;182;914843;-74
2021/05/31 01:57:32;;;;;;;10.80;5.90;;;;;;;;;;767882;179;915835;-75
2021/05/31 01:59:58;;;;;;;8.43;5.40;;;;;;;;;;755906;182;916488;-75
2021/05/31 02:02:24;;;;;;;6.93;5.40;;;;;;;;;;764529;182;813691;-74
2021/05/31 02:04:50;;;;;;;8.20;5.70;;;;;;;;;;765444;182;816596;-74
2021/05/31 02:07:16;;;;;;;7.83;5.90;;;;;;;;;;763428;182;939263;-74
2021/05/31 02:09:42;;;;;;;6.73;5.63;;;;;;;;;;764074;182;918837;-73
2021/05/31 02:12:08;;;;;;;7.93;5.27;;;;;;;;;;766447;182;816289;-75
2021/05/31 02:14:48;;;;;;;7.40;5.07;;;;;;;;;;768210;182;714898;-74
2021/05/31 02:17:17;;;;;;;9.70;5.57;;;;;;;;;;755697;182;814748;-75
2021/05/31 02:19:43;;;;;;;16.67;5.57;;;;;;;;;;763160;182;919149;-74
2021/05/31 02:22:09;;;;;;;7.75;5.93;;;;;;;;;;765342;182;919246;-75
2021/05/31 02:24:37;;;;;;;8.03;5.60;;;;;;;;;;763491;182;919009;-75
2021/05/31 02:27:03;;;;;;;13.30;6.10;;;;;;;;;;760124;182;919054;-74
2021/05/31 02:29:29;;;;;;;8.30;6.10;;;;;;;;;;757798;182;919207;-74
2021/05/31 02:31:55;;;;;;;10.30;5.80;;;;;;;;;;766155;182;814526;-73
2021/05/31 02:34:21;;;;;;;19.63;6.77;;;;;;;;;;760808;181;918689;-74
2021/05/31 02:36:46;;;;;;;14.00;6.40;;;;;;;;;;762676;182;919175;-74
2021/05/31 02:39:12;;;;;;;15.40;5.87;;;;;;;;;;765926;182;916970;-73
2021/05/31 02:41:38;;;;;;;12.93;6.57;;;;;;;;;;761364;182;842235;-74
2021/05/31 02:44:04;;;;;;;13.37;6.40;;;;;;;;;;760338;182;987413;-74
2021/05/31 02:46:30;;;;;;;12.73;7.00;;;;;;;;;;767851;182;921833;-73
2021/05/31 02:48:56;;;;;;;14.80;7.90;;;;;;;;;;768150;182;920940;-74
2021/05/31 02:51:21;;;;;;;19.47;7.70;;;;;;;;;;767450;182;918244;-73
2021/05/31 02:53:47;;;;;;;11.50;6.80;;;;;;;;;;763003;182;920491;-74
2021/05/31 02:56:13;;;;;;;41.70;7.60;;;;;;;;;;768527;182;918035;-74
2021/05/31 02:58:40;;;;;;;19.53;8.27;;;;;;;;;;757434;182;919477;-74
2021/05/31 03:01:05;;;;;;;13.93;8.17;;;;;;;;;;763425;182;813872;-74
2021/05/31 03:03:31;;;;;;;23.07;8.53;;;;;;;;;;770150;182;808892;-74
2021/05/31 03:05:57;;;;;;;12.83;7.80;;;;;;;;;;760548;182;911924;-74
2021/05/31 03:08:22;;;;;;;14.80;7.93;;;;;;;;;;759995;182;926884;-74
2021/05/31 03:10:48;;;;;;;12.90;6.93;;;;;;;;;;770593;182;809816;-74
2021/05/31 03:13:14;;;;;;;12.97;8.13;;;;;;;;;;761526;182;919304;-74
2021/05/31 03:15:41;;;;;;;19.97;10.73;;;;;;;;;;763360;182;862045;-74
2021/05/31 03:18:07;;;;;;;14.45;8.65;;;;;;;;;;768008;182;919389;-74
2021/05/31 03:20:32;;;;;;;13.57;9.17;;;;;;;;;;770047;179;918345;-75
2021/05/31 03:23:00;;;;;;;21.57;10.80;;;;;;;;;;762257;182;1120652;-74
2021/05/31 03:25:24;;;;;;;18.67;10.65;;;;;;;;;;760183;182;919995;-75
2021/05/31 03:27:50;;;;;;;18.73;11.87;;;;;;;;;;765571;182;934916;-75
2021/05/31 03:30:16;;;;;;;17.57;11.80;;;;;;;;;;762962;182;918864;-74
2021/05/31 03:32:42;;;;;;;18.07;11.17;;;;;;;;;;759818;182;919257;-75
2021/05/31 03:35:08;;;;;;;21.83;12.97;;;;;;;;;;768523;182;916412;-74
2021/05/31 03:37:34;;;;;;;21.33;13.15;;;;;;;;;;760898;182;816444;-75
2021/05/31 03:39:59;;;;;;;27.67;13.70;;;;;;;;;;760962;182;894306;-74
2021/05/31 03:42:25;;;;;;;20.65;12.93;;;;;;;;;;769966;182;1020072;-74
2021/05/31 03:44:51;;;;;;;19.43;12.17;;;;;;;;;;759198;182;918236;-75
2021/05/31 03:47:17;;;;;;;24.67;13.90;;;;;;;;;;764710;180;893122;-75
2021/05/31 03:49:43;;;;;;;16.40;11.30;;;;;;;;;;762022;182;917569;-75
2021/05/31 03:52:09;;;;;;;18.03;11.40;;;;;;;;;;767975;182;916677;-75
2021/05/31 03:54:34;;;;;;;20.50;13.17;;;;;;;;;;763717;182;917710;-75
2021/05/31 03:57:00;;;;;;;20.57;12.73;;;;;;;;;;759369;182;915937;-75
2021/05/31 03:59:26;;;;;;;25.45;13.13;;;;;;;;;;768107;182;915380;-75
2021/05/31 04:01:52;;;;;;;18.60;12.20;;;;;;;;;;759732;182;917808;-75
2021/05/31 04:04:19;;;;;;;18.80;12.13;;;;;;;;;;767769;182;914727;-76
2021/05/31 04:11:59;;;;;;;15.20;10.57;;;;;;;;;;769251;182;920931;-76
2021/05/31 04:14:25;;;;;;;17.37;11.40;;;;;;;;;;759615;182;914560;-77
2021/05/31 04:16:50;;;;;;;21.50;13.47;;;;;;;;;;762222;182;918100;-76
2021/05/31 04:19:16;;;;;;;18.57;11.50;;;;;;;;;;766917;182;925095;-77
2021/05/31 04:21:43;;;;;;;17.77;12.60;;;;;;;;;;764945;182;815432;-77
2021/05/31 04:24:08;;;;;;;18.77;11.90;;;;;;;;;;766592;182;825447;-77
2021/05/31 04:26:34;;;;;;;19.27;13.67;;;;;;;;;;762392;182;1020452;-77
2021/05/31 04:29:00;;;;;;;19.83;14.10;;;;;;;;;;766981;182;919625;-76
2021/05/31 04:31:26;;;;;;;22.70;13.70;;;;;;;;;;764219;182;918063;-77
2021/05/31 04:33:52;;;;;;;21.90;14.50;;;;;;;;;;759743;182;914497;-77
2021/05/31 04:36:18;;;;;;;22.20;14.37;;;;;;;;;;764692;182;818484;-76
2021/05/31 04:38:43;;;;;;;22.17;14.03;;;;;;;;;;762292;182;918702;-76
2021/05/31 04:41:09;;;;;;;23.08;14.87;;;;;;;;;;765195;182;913613;-76
2021/05/31 04:43:35;;;;;;;27.53;14.50;;;;;;;;;;768477;182;916256;-77
2021/05/31 04:46:03;;;;;;;29.90;15.05;;;;;;;;;;761993;182;917168;-77
2021/05/31 04:48:27;;;;;;;23.43;16.30;;;;;;;;;;764601;182;623215;-77
2021/05/31 04:50:56;;;;;;;28.33;16.87;;;;;;;;;;768232;182;653028;-77
2021/05/31 04:53:19;;;;;;;28.93;15.70;;;;;;;;;;764149;182;620823;-77
2021/05/31 04:55:44;;;;;;;24.70;15.10;;;;;;;;;;766566;182;757884;-77
2021/05/31 04:58:10;;;;;;;22.07;15.83;;;;;;;;;;770663;180;855011;-77
2021/05/31 05:00:36;;;;;;;22.47;14.03;;;;;;;;;;760941;182;922327;-77
2021/05/31 05:03:02;;;;;;;20.67;14.27;;;;;;;;;;765643;182;816601;-76
2021/05/31 05:05:28;;;;;;;30.10;17.00;;;;;;;;;;760583;182;935797;-78
2021/05/31 05:07:54;;;;;;;22.00;15.97;;;;;;;;;;767582;179;919012;-78
2021/05/31 05:10:19;;;;;;;24.47;16.00;;;;;;;;;;756525;182;919207;-77
2021/05/31 05:12:45;;;;;;;25.47;16.97;;;;;;;;;;761662;182;855526;-77
2021/05/31 05:15:11;;;;;;;25.80;16.60;;;;;;;;;;766459;182;826510;-77
2021/05/31 05:17:37;;;;;;;28.52;18.08;;;;;;;;;;767789;182;980981;-77
2021/05/31 05:20:03;;;;;;;27.80;18.23;;;;;;;;;;758501;182;1084448;-77
2021/05/31 05:22:29;;;;;;;30.63;18.87;;;;;;;;;;764301;182;884641;-78
2021/05/31 05:24:55;;;;;;;34.50;18.90;;;;;;;;;;761781;182;917963;-77
2021/05/31 05:27:21;;;;;;;38.77;19.83;;;;;;;;;;761920;182;889322;-77
2021/05/31 05:29:47;;;;;;;39.77;22.37;;;;;;;;;;766025;182;824195;-78
2021/05/31 05:32:13;;;;;;;40.90;20.53;;;;;;;;;;763048;182;622111;-78
2021/05/31 05:34:39;;;;;;;31.43;19.43;;;;;;;;;;764592;182;644410;-77
2021/05/31 05:37:11;;;;;;;33.47;20.37;;;;;;;;;;765507;182;721308;-78
2021/05/31 05:39:52;;;;;;;40.40;25.00;;;;;;;;;;771514;182;617793;-77
2021/05/31 05:45:02;;;;;;;32.20;19.40;;;;;;;;;;763512;182;857572;-78
2021/05/31 05:49:51;;;;;;;28.33;17.83;;;;;;;;;;758644;182;801599;-78
2021/05/31 05:52:17;;;;;;;25.60;15.37;;;;;;;;;;767324;182;713693;-79
2021/05/31 05:54:43;;;;;;;24.53;16.43;;;;;;;;;;759905;182;918929;-79
2021/05/31 05:57:09;;;;;;;22.27;16.87;;;;;;;;;;755249;182;917897;-79
2021/05/31 05:59:35;;;;;;;20.83;13.53;;;;;;;;;;761855;182;919724;-79
2021/05/31 06:02:01;;;;;;;18.97;13.90;;;;;;;;;;755985;184;874662;-79
2021/05/31 06:04:27;;;;;;;16.80;12.43;;;;;;;;;;763257;182;919571;-79
2021/05/31 06:06:52;;;;;;;20.80;13.57;;;;;;;;;;762854;182;909947;-81
2021/05/31 06:09:20;;;;;;;16.67;12.70;;;;;;;;;;768792;180;817768;-79
2021/05/31 06:11:44;;;;;;;17.35;11.95;;;;;;;;;;764385;182;775016;-80
2021/05/31 06:14:10;;;;;;;13.50;10.70;;;;;;;;;;762574;182;918481;-80
2021/05/31 06:16:36;;;;;;;14.00;11.90;;;;;;;;;;772693;182;913439;-80
2021/05/31 06:19:02;;;;;;;16.93;12.53;;;;;;;;;;761671;182;919260;-79
2021/05/31 06:21:27;;;;;;;16.50;10.68;;;;;;;;;;759667;182;917922;-80
2021/05/31 06:23:54;;;;;;;16.27;10.53;;;;;;;;;;764401;182;848912;-80
2021/05/31 06:26:20;;;;;;;15.67;10.30;;;;;;;;;;765887;182;1028168;-79
2021/05/31 06:28:46;;;;;;;17.92;10.77;;;;;;;;;;762542;182;919722;-80
2021/05/31 06:31:11;;;;;;;19.67;11.73;;;;;;;;;;768195;182;876262;-79
2021/05/31 06:33:37;;;;;;;12.90;9.70;;;;;;;;;;767929;182;853059;-79
2021/05/31 06:36:06;;;;;;;11.53;8.40;;;;;;;;;;762719;182;918028;-78
2021/05/31 06:38:29;;;;;;;11.80;10.07;;;;;;;;;;761195;182;921545;-79
2021/05/31 06:40:55;;;;;;;14.83;9.80;;;;;;;;;;762272;182;869113;-79
2021/05/31 06:43:21;;;;;;;15.63;10.88;;;;;;;;;;758691;182;917244;-79
2021/05/31 06:45:47;;;;;;;15.20;10.10;;;;;;;;;;763116;182;919501;-79
2021/05/31 06:48:12;;;;;;;17.70;9.40;;;;;;;;;;770526;182;918205;-80
2021/05/31 06:50:38;;;;;;;13.87;9.50;;;;;;;;;;762594;182;914663;-79
2021/05/31 06:53:04;;;;;;;12.80;9.17;;;;;;;;;;761662;182;916638;-79
2021/05/31 06:55:31;;;;;;;12.73;10.57;;;;;;;;;;764936;182;916827;-79
2021/05/31 06:57:56;;;;;;;15.83;10.43;;;;;;;;;;762934;182;813951;-79
2021/05/31 07:00:22;;;;;;;13.80;10.23;;;;;;;;;;766129;182;919086;-79
2021/05/31 07:02:48;;;;;;;14.38;10.13;;;;;;;;;;759253;182;1147932;-80
2021/05/31 07:05:14;;;;;;;16.00;9.70;;;;;;;;;;766557;182;873265;-80
2021/05/31 07:07:40;;;;;;;11.90;8.57;;;;;;;;;;761585;182;937418;-79
2021/05/31 07:10:06;;;;;;;11.00;8.53;;;;;;;;;;760665;182;1016693;-79
2021/05/31 07:12:32;;;;;;;12.73;9.13;;;;;;;;;;767628;182;812787;-79
2021/05/31 07:14:59;;;;;;;13.17;8.70;;;;;;;;;;761662;182;914933;-81
2021/05/31 07:17:23;;;;;;;11.90;9.80;;;;;;;;;;766763;182;903408;-79
2021/05/31 07:19:50;;;;;;;13.50;9.35;;;;;;;;;;768705;180;1016368;-80
2021/05/31 07:22:16;;;;;;;14.33;8.60;;;;;;;;;;771659;179;884931;-79
2021/05/31 07:24:42;;;;;;;12.57;9.73;;;;;;;;;;763831;182;796294;-80
2021/05/31 07:27:07;;;;;;;11.60;8.97;;;;;;;;;;762843;182;780063;-79
2021/05/31 07:29:33;;;;;;;11.50;9.03;;;;;;;;;;772817;182;802490;-79
2021/05/31 07:31:59;;;;;;;12.07;8.67;;;;;;;;;;759425;182;916253;-79
2021/05/31 07:34:25;;;;;;;18.80;9.17;;;;;;;;;;760452;182;831993;-80
2021/05/31 07:36:51;;;;;;;11.60;8.70;;;;;;;;;;765997;182;937068;-81
2021/05/31 07:39:17;;;;;;;10.73;7.87;;;;;;;;;;765067;182;1019675;-79
2021/05/31 07:41:43;;;;;;;11.30;7.47;;;;;;;;;;759565;182;918356;-80
2021/05/31 07:44:08;;;;;;;15.30;7.97;;;;;;;;;;764595;182;902156;-80
2021/05/31 07:46:34;;;;;;;9.73;7.40;;;;;;;;;;760639;182;918218;-79
2021/05/31 07:49:00;;;;;;;9.90;7.13;;;;;;;;;;760857;182;911179;-81
2021/05/31 07:51:27;;;;;;;11.43;8.40;;;;;;;;;;761091;182;913067;-79
2021/05/31 07:53:53;;;;;;;12.30;8.37;;;;;;;;;;770719;179;713558;-80
2021/05/31 07:56:18;;;;;;;11.20;8.60;;;;;;;;;;763407;182;634223;-80
2021/05/31 07:58:44;;;;;;;13.23;8.53;;;;;;;;;;762823;182;652318;-80
2021/05/31 08:01:10;;;;;;;9.77;6.90;;;;;;;;;;766770;182;803350;-79
2021/05/31 08:03:36;;;;;;;11.80;8.47;;;;;;;;;;765996;182;624320;-79
2021/05/31 08:06:02;;;;;;;13.50;8.88;;;;;;;;;;764111;182;819921;-80
2021/05/31 08:08:28;;;;;;;10.17;8.20;;;;;;;;;;764614;182;685693;-80
2021/05/31 08:10:54;;;;;;;13.33;7.20;;;;;;;;;;762194;182;630494;-80
2021/05/31 08:13:19;;;;;;;11.60;8.60;;;;;;;;;;759966;182;624996;-80
2021/05/31 08:15:45;;;;;;;11.17;7.90;;;;;;;;;;764251;182;659464;-80
2021/05/31 08:18:11;;;;;;;14.17;8.07;;;;;;;;;;758044;183;663846;-81
2021/05/31 08:20:37;;;;;;;8.83;7.70;;;;;;;;;;763709;182;637962;-80
2021/05/31 08:23:03;;;;;;;17.63;9.07;;;;;;;;;;763991;182;637746;-81
2021/05/31 08:25:29;;;;;;;18.63;8.67;;;;;;;;;;770321;182;633766;-81
2021/05/31 08:27:55;;;;;;;10.40;8.17;;;;;;;;;;764013;182;617429;-81
2021/05/31 08:30:21;;;;;;;24.80;9.10;;;;;;;;;;771258;182;617185;-81
2021/05/31 08:32:47;;;;;;;11.33;8.23;;;;;;;;;;769099;181;619545;-81
2021/05/31 08:35:13;;;;;;;25.53;11.03;;;;;;;;;;763422;182;917192;-82
2021/05/31 08:37:39;;;;;;;22.80;8.50;;;;;;;;;;769059;182;918975;-80
2021/05/31 08:40:05;;;;;;;9.10;6.57;;;;;;;;;;767550;182;917864;-81
2021/05/31 08:42:30;;;;;;;11.70;8.23;;;;;;;;;;764775;182;649936;-81
2021/05/31 08:44:56;;;;;;;12.90;8.17;;;;;;;;;;775931;177;624421;-81
2021/05/31 08:47:22;;;;;;;15.83;8.73;;;;;;;;;;780100;177;623179;-81
2021/05/31 08:49:48;;;;;;;9.73;6.47;;;;;;;;;;761970;182;655208;-82
2021/05/31 08:52:14;;;;;;;10.70;7.03;;;;;;;;;;765127;182;633502;-81
2021/05/31 08:54:40;;;;;;;12.00;6.63;;;;;;;;;;764755;182;713238;-82
2021/05/31 08:57:07;;;;;;;11.00;7.33;;;;;;;;;;766480;182;627350;-81
2021/05/31 08:59:33;;;;;;;12.43;7.50;;;;;;;;;;759482;182;1024284;-79
2021/05/31 09:01:59;;;;;;;10.70;6.97;;;;;;;;;;759000;182;919926;-81
2021/05/31 09:04:25;;;;;;;7.60;5.13;;;;;;;;;;764643;182;911997;-80
2021/05/31 09:06:55;;;;;;;5.70;3.40;;;;;;;;;;766409;182;898765;-79
2021/05/31 09:09:20;;;;;;;9.20;2.83;;;;;;;;;;767324;182;918674;-78
2021/05/31 09:11:52;;;;;;;13.77;3.90;;;;;;;;;;765596;182;919469;-77
2021/05/31 09:14:18;;;;;;;5.40;3.30;;;;;;;;;;763007;182;919503;-78
2021/05/31 09:16:44;;;;;;;6.67;3.03;;;;;;;;;;762684;182;900029;-78
2021/05/31 09:19:10;;;;;;;4.40;2.73;;;;;;;;;;765106;182;891328;-81
2021/05/31 09:21:35;;;;;;;4.17;2.37;;;;;;;;;;759642;182;853903;-79
2021/05/31 09:24:01;;;;;;;5.13;2.90;;;;;;;;;;765268;179;912932;-78
2021/05/31 09:26:27;;;;;;;5.10;3.97;;;;;;;;;;758621;182;916254;-79
2021/05/31 09:28:54;;;;;;;7.67;3.50;;;;;;;;;;759119;182;811099;-78
2021/05/31 09:31:21;;;;;;;4.30;2.97;;;;;;;;;;765731;182;851686;-78
2021/05/31 09:33:45;;;;;;;5.03;3.50;;;;;;;;;;760222;182;918783;-78
2021/05/31 09:36:11;;;;;;;4.83;2.37;;;;;;;;;;766412;182;920123;-78
2021/05/31 09:38:43;;;;;;;3.67;2.53;;;;;;;;;;770862;182;922845;-79
2021/05/31 09:41:09;;;;;;;6.10;3.40;;;;;;;;;;766289;182;913841;-79
2021/05/31 09:43:37;;;;;;;8.20;3.20;;;;;;;;;;764321;182;902720;-79
2021/05/31 09:46:01;;;;;;;6.90;3.27;;;;;;;;;;763719;182;931020;-79
2021/05/31 09:48:31;;;;;;;3.80;2.90;;;;;;;;;;770882;182;915740;-79
2021/05/31 09:50:58;;;;;;;4.43;3.10;;;;;;;;;;764263;182;923010;-76
2021/05/31 09:53:23;;;;;;;4.93;3.10;;;;;;;;;;760278;182;1018782;-78
2021/05/31 09:55:49;;;;;;;4.83;3.30;;;;;;;;;;769273;182;879380;-78
2021/05/31 09:58:15;;;;;;;5.00;2.90;;;;;;;;;;761116;182;883195;-77
2021/05/31 10:00:41;;;;;;;4.17;2.60;;;;;;;;;;761128;182;919469;-75
2021/05/31 10:03:15;;;;;;;11.07;4.97;;;;;;;;;;767269;182;923774;-79
2021/05/31 10:06:14;;;;;;;5.20;3.70;;;;;;;;;;764970;182;821757;-79
2021/05/31 10:08:40;;;;;;;7.13;3.10;;;;;;;;;;767970;182;959200;-81
2021/05/31 10:10:43;;;;;;;8.13;3.67;;;;;;;;;;762384;182;624812;-79
2021/05/31 10:13:09;;;;;;;8.03;3.33;;;;;;;;;;767602;182;614216;-81
2021/05/31 10:15:36;;;;;;;16.23;5.73;;;;;;;;;;766481;182;623020;-79
2021/05/31 10:18:01;;;;;;;22.33;4.67;;;;;;;;;;759599;182;916523;-82
2021/05/31 10:20:27;;;;;;;5.60;2.80;;;;;;;;;;765682;182;913841;-82
2021/05/31 10:22:53;;;;;;;4.13;2.80;;;;;;;;;;763236;183;814152;-83
2021/05/31 10:25:19;;;;;;;16.33;5.53;;;;;;;;;;759564;182;920408;-82
2021/05/31 10:27:45;;;;;;;4.30;3.00;;;;;;;;;;763007;182;815165;-81
2021/05/31 10:30:13;;;;;;;8.17;3.70;;;;;;;;;;759396;182;628029;-82
2021/05/31 10:32:39;;;;;;;4.20;2.70;;;;;;;;;;770437;182;676473;-80
2021/05/31 10:35:10;;;;;;;9.10;3.13;;;;;;;;;;760654;182;1020047;-81
2021/05/31 10:37:36;;;;;;;3.47;2.30;;;;;;;;;;763380;182;935303;-83
2021/05/31 10:40:03;;;;;;;5.73;3.97;;;;;;;;;;772266;182;668304;-83
2021/05/31 10:42:34;;;;;;;6.10;3.20;;;;;;;;;;771108;182;635259;-83
2021/05/31 10:45:00;;;;;;;4.33;2.50;;;;;;;;;;768582;182;628453;-82
2021/05/31 10:47:26;;;;;;;5.43;2.90;;;;;;;;;;763406;182;623832;-81
2021/05/31 10:49:54;;;;;;;5.10;2.90;;;;;;;;;;763554;182;914551;-80
2021/05/31 10:52:20;;;;;;;4.70;2.57;;;;;;;;;;757023;182;819810;-81
2021/05/31 10:54:45;;;;;;;5.80;2.07;;;;;;;;;;766782;180;917274;-82
2021/05/31 10:57:11;;;;;;;6.80;3.73;;;;;;;;;;768426;181;640134;-82
2021/05/31 10:59:43;;;;;;;7.83;3.00;;;;;;;;;;765572;182;698254;-82
2021/05/31 11:02:09;;;;;;;3.57;2.60;;;;;;;;;;768908;182;816828;-80
2021/05/31 11:04:34;;;;;;;4.10;2.33;;;;;;;;;;763507;182;886810;-79
2021/05/31 11:07:01;;;;;;;6.25;3.17;;;;;;;;;;769183;182;811441;-81
2021/05/31 11:09:29;;;;;;;6.73;2.53;;;;;;;;;;765800;182;913805;-80
2021/05/31 11:11:55;;;;;;;4.70;2.47;;;;;;;;;;768991;182;634659;-80
2021/05/31 11:14:27;;;;;;;6.87;2.37;;;;;;;;;;766281;182;674439;-80
2021/05/31 11:16:53;;;;;;;6.70;3.10;;;;;;;;;;763516;183;763003;-82
2021/05/31 11:19:19;;;;;;;6.73;3.10;;;;;;;;;;768233;182;631393;-82
2021/05/31 11:21:45;;;;;;;8.30;2.90;;;;;;;;;;761642;182;780817;-81
2021/05/31 11:24:15;;;;;;;4.20;3.13;;;;;;;;;;770124;182;915296;-81
2021/05/31 11:26:41;;;;;;;4.70;2.90;;;;;;;;;;766729;182;913620;-82
2021/05/31 11:29:07;;;;;;;10.70;3.60;;;;;;;;;;758609;182;920719;-81
2021/05/31 11:31:33;;;;;;;6.50;3.37;;;;;;;;;;764554;182;646834;-79
2021/05/31 11:33:59;;;;;;;8.13;3.17;;;;;;;;;;767852;182;786491;-79
2021/05/31 11:36:29;;;;;;;3.97;2.70;;;;;;;;;;760352;182;988893;-79
2021/05/31 11:38:55;;;;;;;8.50;4.37;;;;;;;;;;759098;182;1027044;-80
2021/05/31 11:41:26;;;;;;;4.50;2.73;;;;;;;;;;768616;182;811379;-82
2021/05/31 11:43:53;;;;;;;3.77;2.60;;;;;;;;;;771046;182;634727;-80
2021/05/31 11:46:18;;;;;;;8.60;2.97;;;;;;;;;;762707;182;916306;-80
2021/05/31 11:48:44;;;;;;;5.03;3.10;;;;;;;;;;766060;182;626370;-81
2021/05/31 11:51:10;;;;;;;11.83;3.63;;;;;;;;;;772696;182;714270;-80
2021/05/31 11:53:36;;;;;;;7.20;3.67;;;;;;;;;;759256;182;864742;-79
2021/05/31 11:56:02;;;;;;;10.33;4.33;;;;;;;;;;760733;182;1025610;-80
2021/05/31 11:58:28;;;;;;;7.50;4.33;;;;;;;;;;768748;182;626364;-78
2021/05/31 12:00:54;;;;;;;4.37;3.67;;;;;;;;;;761289;182;914105;-79
2021/05/31 12:03:21;;;;;;;5.30;2.53;;;;;;;;;;764010;182;815984;-79
2021/05/31 12:05:45;;;;;;;6.77;3.27;;;;;;;;;;762932;182;624971;-78
2021/05/31 12:08:11;;;;;;;4.87;3.50;;;;;;;;;;770444;182;917807;-82
2021/05/31 12:10:37;;;;;;;4.67;2.70;;;;;;;;;;769431;182;675914;-79
2021/05/31 12:13:03;;;;;;;4.80;3.63;;;;;;;;;;768704;182;632991;-79
2021/05/31 12:15:29;;;;;;;6.00;3.73;;;;;;;;;;771456;182;1045683;-80
2021/05/31 12:17:55;;;;;;;5.97;3.73;;;;;;;;;;760094;182;919133;-80
2021/05/31 12:20:25;;;;;;;17.17;3.45;;;;;;;;;;764460;182;801175;-77
2021/05/31 12:22:51;;;;;;;5.53;2.83;;;;;;;;;;774663;182;650156;-78
2021/05/31 12:25:17;;;;;;;3.53;2.87;;;;;;;;;;769179;180;836994;-79
2021/05/31 12:27:43;;;;;;;8.27;3.10;;;;;;;;;;765298;182;913139;-79
2021/05/31 12:30:09;;;;;;;4.40;2.63;;;;;;;;;;767431;182;732688;-81
2021/05/31 12:32:36;;;;;;;7.30;3.03;;;;;;;;;;772214;182;628777;-81
2021/05/31 12:35:03;;;;;;;8.30;3.00;;;;;;;;;;761136;182;893495;-81
2021/05/31 12:37:27;;;;;;;6.97;3.07;;;;;;;;;;759912;182;920940;-80
2021/05/31 12:39:53;;;;;;;7.40;3.03;;;;;;;;;;767147;182;666351;-78
2021/05/31 12:42:20;;;;;;;5.23;3.40;;;;;;;;;;764455;182;907335;-81
2021/05/31 12:44:46;;;;;;;4.43;2.83;;;;;;;;;;755511;182;1022996;-81
2021/05/31 12:47:12;;;;;;;5.30;2.60;;;;;;;;;;770268;182;909500;-79
2021/05/31 12:49:41;;;;;;;5.10;2.87;;;;;;;;;;764950;182;799085;-81
2021/05/31 12:52:07;;;;;;;6.73;3.27;;;;;;;;;;757033;182;916122;-80
2021/05/31 12:54:33;;;;;;;5.53;2.97;;;;;;;;;;757932;182;917168;-81
2021/05/31 12:57:04;;;;;;;3.33;2.23;;;;;;;;;;768880;182;624469;-80
2021/05/31 12:59:30;;;;;;;4.17;2.40;;;;;;;;;;767361;182;632073;-79
2021/05/31 13:01:56;;;;;;;4.13;3.20;;;;;;;;;;762638;182;921152;-81
2021/05/31 13:04:26;;;;;;;3.50;2.50;;;;;;;;;;760490;182;946841;-79
2021/05/31 13:06:52;;;;;;;4.80;2.80;;;;;;;;;;760736;182;1053556;-81
2021/05/31 13:09:21;;;;;;;6.17;3.40;;;;;;;;;;767892;182;917865;-79
2021/05/31 13:12:00;;;;;;;4.80;1.97;;;;;;;;;;759656;182;953134;-78
2021/05/31 13:14:28;;;;;;;5.73;2.10;;;;;;;;;;763003;182;1022872;-78
2021/05/31 13:16:54;;;;;;;8.63;2.80;;;;;;;;;;769594;182;713759;-80
2021/05/31 13:19:19;;;;;;;5.03;3.47;;;;;;;;;;768093;182;811882;-77
2021/05/31 13:21:44;;;;;;;4.03;2.63;;;;;;;;;;763387;182;919432;-80
2021/05/31 13:24:10;;;;;;;5.60;2.30;;;;;;;;;;763506;182;914753;-78
2021/05/31 13:26:36;;;;;;;7.43;2.10;;;;;;;;;;769844;182;913842;-79
2021/05/31 13:29:02;;;;;;;3.00;2.20;;;;;;;;;;765024;182;774234;-78
2021/05/31 13:31:28;;;;;;;3.57;2.20;;;;;;;;;;765054;182;914605;-78
2021/05/31 13:33:54;;;;;;;4.27;3.00;;;;;;;;;;768013;182;675504;-81
2021/05/31 13:36:22;;;;;;;4.67;2.50;;;;;;;;;;763050;182;898956;-78
2021/05/31 13:38:47;;;;;;;4.20;2.53;;;;;;;;;;762429;182;921132;-81
2021/05/31 13:41:13;;;;;;;3.33;2.33;;;;;;;;;;766569;181;918644;-70
2021/05/31 13:43:39;;;;;;;2.97;2.27;;;;;;;;;;759241;179;920136;-70
2021/05/31 13:46:04;;;;;;;4.20;2.47;;;;;;;;;;777793;175;919479;-73
2021/05/31 13:48:30;;;;;;;3.30;2.40;;;;;;;;;;786079;179;918958;-69
2021/05/31 13:50:56;;;;;;;3.70;2.30;;;;;;;;;;782246;179;919079;-71
2021/05/31 13:53:22;;;;;;;4.13;2.20;;;;;;;;;;782699;179;918943;-71
2021/05/31 13:55:48;;;;;;;5.50;2.70;;;;;;;;;;780820;176;919380;-69
2021/05/31 13:58:15;;;;;;;6.07;2.40;;;;;;;;;;786368;176;920123;-71
2021/05/31 14:00:39;;;;;;;5.47;2.27;;;;;;;;;;781179;179;919795;-74
2021/05/31 14:03:05;;;;;;;5.27;2.53;;;;;;;;;;779958;177;919080;-68
2021/05/31 14:05:32;;;;;;;3.90;2.30;;;;;;;;;;786441;177;918566;-69
2021/05/31 14:07:58;;;;;;;4.73;2.87;;;;;;;;;;780379;178;1229033;-70
2021/05/31 14:10:24;;;;;;;4.37;2.33;;;;;;;;;;780034;177;920977;-71
2021/05/31 14:12:50;;;;;;;8.27;2.30;;;;;;;;;;787858;179;872225;-71
2021/05/31 14:15:16;;;;;;;10.23;2.53;;;;;;;;;;780388;177;919454;-72
2021/05/31 14:17:43;;;;;;;8.47;3.27;;;;;;;;;;780792;177;919034;-70
2021/05/31 14:20:08;;;;;;;4.33;2.40;;;;;;;;;;773430;177;1226885;-67
2021/05/31 14:22:34;;;;;;;4.03;2.93;;;;;;;;;;785920;177;919333;-70